sensor_id;sensor_type;location;lat;lon;timestamp;temperature;humidity
54082;DHT22;39986;50.770;0.266;2023-02-15T00:00:22;6.40;99.90
54082;DHT22;39986;50.770;0.266;2023-02-15T00:02:47;6.40;99.90
54082;DHT22;39986;50.770;0.266;2023-02-15T00:05:13;6.50;99.90
54082;DHT22;39986;50.770;0.266;2023-02-15T00:07:39;6.50;99.90
54082;DHT22;39986;50.770;0.266;2023-02-15T00:10:05;6.50;99.90
54082;DHT22;39986;50.770;0.266;2023-02-15T00:12:31;6.50;99.90
54082;DHT22;39986;50.770;0.266;2023-02-15T00:14:56;6.60;99.90
54082;DHT22;39986;50.770;0.266;2023-02-15T00:17:22;6.50;99.90
54082;DHT22;39986;50.770;0.266;2023-02-15T00:19:48;6.40;99.90
54082;DHT22;39986;50.770;0.266;2023-02-15T00:22:13;6.50;99.90
54082;DHT22;39986;50.770;0.266;2023-02-15T00:24:39;6.30;99.90
54082;DHT22;39986;50.770;0.266;2023-02-15T00:27:04;6.30;99.90
54082;DHT22;39986;50.770;0.266;2023-02-15T00:29:30;6.10;99.90
54082;DHT22;39986;50.770;0.266;2023-02-15T00:31:56;6.10;99.90
54082;DHT22;39986;50.770;0.266;2023-02-15T00:34:24;6.00;99.90
54082;DHT22;39986;50.770;0.266;2023-02-15T00:36:50;6.10;99.90
54082;DHT22;39986;50.770;0.266;2023-02-15T00:39:16;6.10;99.90
54082;DHT22;39986;50.770;0.266;2023-02-15T00:41:42;6.10;99.90
54082;DHT22;39986;50.770;0.266;2023-02-15T00:44:08;6.10;99.90
54082;DHT22;39986;50.770;0.266;2023-02-15T00:46:34;6.10;99.90
54082;DHT22;39986;50.770;0.266;2023-02-15T00:49:00;6.10;99.90
54082;DHT22;39986;50.770;0.266;2023-02-15T00:51:51;6.10;99.90
54082;DHT22;39986;50.770;0.266;2023-02-15T00:54:17;6.00;99.90
54082;DHT22;39986;50.770;0.266;2023-02-15T00:56:43;5.90;99.90
54082;DHT22;39986;50.770;0.266;2023-02-15T00:59:09;6.00;99.90
54082;DHT22;39986;50.770;0.266;2023-02-15T01:01:34;6.00;99.90
54082;DHT22;39986;50.770;0.266;2023-02-15T01:04:01;6.00;99.90
54082;DHT22;39986;50.770;0.266;2023-02-15T01:06:27;6.00;99.90
54082;DHT22;39986;50.770;0.266;2023-02-15T01:08:52;6.00;99.90
54082;DHT22;39986;50.770;0.266;2023-02-15T01:11:21;6.10;99.90
54082;DHT22;39986;50.770;0.266;2023-02-15T01:13:55;6.00;99.90
54082;DHT22;39986;50.770;0.266;2023-02-15T01:16:22;6.00;99.90
54082;DHT22;39986;50.770;0.266;2023-02-15T01:18:48;6.00;99.90
54082;DHT22;39986;50.770;0.266;2023-02-15T01:21:16;5.90;99.90
54082;DHT22;39986;50.770;0.266;2023-02-15T01:23:42;5.90;99.90
54082;DHT22;39986;50.770;0.266;2023-02-15T01:26:08;5.90;99.90
54082;DHT22;39986;50.770;0.266;2023-02-15T01:28:35;5.90;99.90
54082;DHT22;39986;50.770;0.266;2023-02-15T01:31:05;6.00;99.90
54082;DHT22;39986;50.770;0.266;2023-02-15T01:33:31;5.90;99.90
54082;DHT22;39986;50.770;0.266;2023-02-15T01:35:57;5.90;99.90
54082;DHT22;39986;50.770;0.266;2023-02-15T01:38:23;5.70;99.90
54082;DHT22;39986;50.770;0.266;2023-02-15T01:40:53;5.70;99.90
54082;DHT22;39986;50.770;0.266;2023-02-15T01:43:20;5.60;99.90
54082;DHT22;39986;50.770;0.266;2023-02-15T01:45:47;5.60;99.90
54082;DHT22;39986;50.770;0.266;2023-02-15T01:48:22;5.50;99.90
54082;DHT22;39986;50.770;0.266;2023-02-15T01:50:54;5.50;99.90
54082;DHT22;39986;50.770;0.266;2023-02-15T01:53:26;5.50;99.90
54082;DHT22;39986;50.770;0.266;2023-02-15T01:56:03;5.90;99.90
54082;DHT22;39986;50.770;0.266;2023-02-15T01:58:32;5.50;99.90
54082;DHT22;39986;50.770;0.266;2023-02-15T02:01:00;5.50;99.90
54082;DHT22;39986;50.770;0.266;2023-02-15T02:03:48;5.60;99.90
54082;DHT22;39986;50.770;0.266;2023-02-15T02:06:15;5.50;99.90
54082;DHT22;39986;50.770;0.266;2023-02-15T02:08:41;5.50;99.90
54082;DHT22;39986;50.770;0.266;2023-02-15T02:11:11;5.50;99.90
54082;DHT22;39986;50.770;0.266;2023-02-15T02:13:39;5.60;99.90
54082;DHT22;39986;50.770;0.266;2023-02-15T02:19:22;5.50;99.90
54082;DHT22;39986;50.770;0.266;2023-02-15T02:34:01;5.30;99.90
54082;DHT22;39986;50.770;0.266;2023-02-15T02:36:40;5.40;99.90
54082;DHT22;39986;50.770;0.266;2023-02-15T02:42:07;5.40;99.90
54082;DHT22;39986;50.770;0.266;2023-02-15T02:44:43;5.50;99.90
54082;DHT22;39986;50.770;0.266;2023-02-15T02:50:00;5.30;99.90
54082;DHT22;39986;50.770;0.266;2023-02-15T02:52:59;5.30;99.90
54082;DHT22;39986;50.770;0.266;2023-02-15T02:56:05;5.40;99.90
54082;DHT22;39986;50.770;0.266;2023-02-15T02:58:39;5.40;99.90
54082;DHT22;39986;50.770;0.266;2023-02-15T03:01:27;5.40;99.90
54082;DHT22;39986;50.770;0.266;2023-02-15T03:04:16;5.30;99.90
54082;DHT22;39986;50.770;0.266;2023-02-15T03:06:57;5.30;99.90
54082;DHT22;39986;50.770;0.266;2023-02-15T03:12:00;5.30;99.90
54082;DHT22;39986;50.770;0.266;2023-02-15T03:14:27;5.30;99.90
54082;DHT22;39986;50.770;0.266;2023-02-15T03:16:54;5.20;99.90
54082;DHT22;39986;50.770;0.266;2023-02-15T03:19:26;5.20;99.90
54082;DHT22;39986;50.770;0.266;2023-02-15T03:21:57;5.20;99.90
54082;DHT22;39986;50.770;0.266;2023-02-15T03:24:53;5.20;99.90
54082;DHT22;39986;50.770;0.266;2023-02-15T03:27:49;5.30;99.90
54082;DHT22;39986;50.770;0.266;2023-02-15T03:30:20;5.20;99.90
54082;DHT22;39986;50.770;0.266;2023-02-15T03:32:48;5.20;99.90
54082;DHT22;39986;50.770;0.266;2023-02-15T03:35:16;5.20;99.90
54082;DHT22;39986;50.770;0.266;2023-02-15T03:37:48;5.20;99.90
54082;DHT22;39986;50.770;0.266;2023-02-15T03:41:00;5.20;99.90
54082;DHT22;39986;50.770;0.266;2023-02-15T03:43:42;5.20;99.90
54082;DHT22;39986;50.770;0.266;2023-02-15T03:46:18;5.30;99.90
54082;DHT22;39986;50.770;0.266;2023-02-15T03:48:54;5.40;99.90
54082;DHT22;39986;50.770;0.266;2023-02-15T03:51:25;5.50;99.90
54082;DHT22;39986;50.770;0.266;2023-02-15T03:56:28;5.50;99.90
54082;DHT22;39986;50.770;0.266;2023-02-15T03:58:54;5.50;99.90
54082;DHT22;39986;50.770;0.266;2023-02-15T04:01:48;5.50;99.90
54082;DHT22;39986;50.770;0.266;2023-02-15T04:04:32;5.40;99.90
54082;DHT22;39986;50.770;0.266;2023-02-15T04:06:58;5.60;99.90
54082;DHT22;39986;50.770;0.266;2023-02-15T04:09:24;5.60;99.90
54082;DHT22;39986;50.770;0.266;2023-02-15T04:12:08;5.60;99.90
54082;DHT22;39986;50.770;0.266;2023-02-15T04:14:34;5.60;99.90
54082;DHT22;39986;50.770;0.266;2023-02-15T04:17:18;5.70;99.90
54082;DHT22;39986;50.770;0.266;2023-02-15T04:19:44;5.80;99.90
54082;DHT22;39986;50.770;0.266;2023-02-15T04:22:28;5.80;99.90
54082;DHT22;39986;50.770;0.266;2023-02-15T04:25:12;5.70;99.90
54082;DHT22;39986;50.770;0.266;2023-02-15T04:27:39;5.70;99.90
54082;DHT22;39986;50.770;0.266;2023-02-15T04:30:06;5.70;99.90
54082;DHT22;39986;50.770;0.266;2023-02-15T04:32:32;5.80;99.90
54082;DHT22;39986;50.770;0.266;2023-02-15T04:34:58;5.80;99.90
54082;DHT22;39986;50.770;0.266;2023-02-15T04:37:23;5.90;99.90
54082;DHT22;39986;50.770;0.266;2023-02-15T04:39:49;5.80;99.90
54082;DHT22;39986;50.770;0.266;2023-02-15T04:42:15;5.90;99.90
54082;DHT22;39986;50.770;0.266;2023-02-15T04:44:41;5.90;99.90
54082;DHT22;39986;50.770;0.266;2023-02-15T04:47:07;5.80;99.90
54082;DHT22;39986;50.770;0.266;2023-02-15T04:49:32;5.80;99.90
54082;DHT22;39986;50.770;0.266;2023-02-15T04:51:58;5.70;99.90
54082;DHT22;39986;50.770;0.266;2023-02-15T04:54:24;5.80;99.90
54082;DHT22;39986;50.770;0.266;2023-02-15T04:56:49;5.70;99.90
54082;DHT22;39986;50.770;0.266;2023-02-15T04:59:15;5.70;99.90
54082;DHT22;39986;50.770;0.266;2023-02-15T05:01:41;5.80;99.90
54082;DHT22;39986;50.770;0.266;2023-02-15T05:04:07;5.80;99.90
54082;DHT22;39986;50.770;0.266;2023-02-15T05:06:33;5.80;99.90
54082;DHT22;39986;50.770;0.266;2023-02-15T05:08:58;5.70;99.90
54082;DHT22;39986;50.770;0.266;2023-02-15T05:11:25;5.70;99.90
54082;DHT22;39986;50.770;0.266;2023-02-15T05:13:51;5.70;99.90
54082;DHT22;39986;50.770;0.266;2023-02-15T05:16:17;5.70;99.90
54082;DHT22;39986;50.770;0.266;2023-02-15T05:18:42;5.70;99.90
54082;DHT22;39986;50.770;0.266;2023-02-15T05:21:08;5.70;99.90
54082;DHT22;39986;50.770;0.266;2023-02-15T05:23:34;5.60;99.90
54082;DHT22;39986;50.770;0.266;2023-02-15T05:26:00;5.60;99.90
54082;DHT22;39986;50.770;0.266;2023-02-15T05:28:44;5.70;99.90
54082;DHT22;39986;50.770;0.266;2023-02-15T05:31:14;5.70;99.90
54082;DHT22;39986;50.770;0.266;2023-02-15T05:33:41;5.60;99.90
54082;DHT22;39986;50.770;0.266;2023-02-15T05:36:07;5.60;99.90
54082;DHT22;39986;50.770;0.266;2023-02-15T05:38:34;5.60;99.90
54082;DHT22;39986;50.770;0.266;2023-02-15T05:40:59;5.60;99.90
54082;DHT22;39986;50.770;0.266;2023-02-15T05:43:28;5.60;99.90
54082;DHT22;39986;50.770;0.266;2023-02-15T05:45:56;5.70;99.90
54082;DHT22;39986;50.770;0.266;2023-02-15T05:48:24;5.70;99.90
54082;DHT22;39986;50.770;0.266;2023-02-15T05:51:01;5.70;99.90
54082;DHT22;39986;50.770;0.266;2023-02-15T05:53:29;5.70;99.90
54082;DHT22;39986;50.770;0.266;2023-02-15T05:55:55;5.70;99.90
54082;DHT22;39986;50.770;0.266;2023-02-15T05:58:26;5.70;99.90
54082;DHT22;39986;50.770;0.266;2023-02-15T06:00:52;5.70;99.90
54082;DHT22;39986;50.770;0.266;2023-02-15T06:03:17;5.60;99.90
54082;DHT22;39986;50.770;0.266;2023-02-15T06:05:43;5.60;99.90
54082;DHT22;39986;50.770;0.266;2023-02-15T06:08:09;5.70;99.90
54082;DHT22;39986;50.770;0.266;2023-02-15T06:10:35;5.70;99.90
54082;DHT22;39986;50.770;0.266;2023-02-15T06:13:01;5.60;99.90
54082;DHT22;39986;50.770;0.266;2023-02-15T06:15:26;5.60;99.90
54082;DHT22;39986;50.770;0.266;2023-02-15T06:17:52;5.60;99.90
54082;DHT22;39986;50.770;0.266;2023-02-15T06:20:18;5.60;99.90
54082;DHT22;39986;50.770;0.266;2023-02-15T06:22:43;5.60;99.90
54082;DHT22;39986;50.770;0.266;2023-02-15T06:25:09;5.60;99.90
54082;DHT22;39986;50.770;0.266;2023-02-15T06:27:36;5.70;99.90
54082;DHT22;39986;50.770;0.266;2023-02-15T06:30:07;5.70;99.90
54082;DHT22;39986;50.770;0.266;2023-02-15T06:32:33;5.70;99.90
54082;DHT22;39986;50.770;0.266;2023-02-15T06:34:58;5.80;99.90
54082;DHT22;39986;50.770;0.266;2023-02-15T06:37:24;5.80;99.90
54082;DHT22;39986;50.770;0.266;2023-02-15T06:39:50;6.00;99.90
54082;DHT22;39986;50.770;0.266;2023-02-15T06:42:41;6.30;99.90
54082;DHT22;39986;50.770;0.266;2023-02-15T06:45:33;6.70;99.90
54082;DHT22;39986;50.770;0.266;2023-02-15T06:47:58;6.90;99.90
54082;DHT22;39986;50.770;0.266;2023-02-15T06:50:24;7.10;99.90
54082;DHT22;39986;50.770;0.266;2023-02-15T06:52:58;7.30;99.90
54082;DHT22;39986;50.770;0.266;2023-02-15T06:55:24;7.50;99.90
54082;DHT22;39986;50.770;0.266;2023-02-15T06:57:50;7.60;99.90
54082;DHT22;39986;50.770;0.266;2023-02-15T07:00:16;7.60;99.90
54082;DHT22;39986;50.770;0.266;2023-02-15T07:02:43;7.70;99.90
54082;DHT22;39986;50.770;0.266;2023-02-15T07:05:09;7.80;99.90
54082;DHT22;39986;50.770;0.266;2023-02-15T07:07:35;7.90;99.90
54082;DHT22;39986;50.770;0.266;2023-02-15T07:10:00;8.00;99.90
54082;DHT22;39986;50.770;0.266;2023-02-15T07:12:26;8.00;99.90
54082;DHT22;39986;50.770;0.266;2023-02-15T07:15:09;8.00;99.90
54082;DHT22;39986;50.770;0.266;2023-02-15T07:17:36;8.10;99.90
54082;DHT22;39986;50.770;0.266;2023-02-15T07:20:03;8.20;99.90
54082;DHT22;39986;50.770;0.266;2023-02-15T07:22:29;8.20;99.90
54082;DHT22;39986;50.770;0.266;2023-02-15T07:24:55;8.30;99.90
54082;DHT22;39986;50.770;0.266;2023-02-15T07:27:21;8.30;99.90
54082;DHT22;39986;50.770;0.266;2023-02-15T07:29:46;8.40;99.90
54082;DHT22;39986;50.770;0.266;2023-02-15T07:32:12;8.40;99.90
54082;DHT22;39986;50.770;0.266;2023-02-15T07:34:38;8.50;99.90
54082;DHT22;39986;50.770;0.266;2023-02-15T07:37:05;8.50;99.90
54082;DHT22;39986;50.770;0.266;2023-02-15T07:39:30;8.60;99.90
54082;DHT22;39986;50.770;0.266;2023-02-15T07:41:56;8.60;99.90
54082;DHT22;39986;50.770;0.266;2023-02-15T07:44:22;8.60;99.90
54082;DHT22;39986;50.770;0.266;2023-02-15T07:46:49;8.60;99.90
54082;DHT22;39986;50.770;0.266;2023-02-15T07:49:15;8.70;99.90
54082;DHT22;39986;50.770;0.266;2023-02-15T07:51:41;8.70;99.90
54082;DHT22;39986;50.770;0.266;2023-02-15T07:54:06;8.70;99.90
54082;DHT22;39986;50.770;0.266;2023-02-15T07:56:32;8.70;99.90
54082;DHT22;39986;50.770;0.266;2023-02-15T07:58:58;8.80;99.90
54082;DHT22;39986;50.770;0.266;2023-02-15T08:01:33;8.70;99.90
54082;DHT22;39986;50.770;0.266;2023-02-15T08:04:00;8.80;99.90
54082;DHT22;39986;50.770;0.266;2023-02-15T08:06:31;8.80;99.90
54082;DHT22;39986;50.770;0.266;2023-02-15T08:08:57;8.80;99.90
54082;DHT22;39986;50.770;0.266;2023-02-15T08:11:24;8.90;99.90
54082;DHT22;39986;50.770;0.266;2023-02-15T08:14:13;8.90;99.90
54082;DHT22;39986;50.770;0.266;2023-02-15T08:16:46;8.90;99.90
54082;DHT22;39986;50.770;0.266;2023-02-15T08:19:24;8.90;99.90
54082;DHT22;39986;50.770;0.266;2023-02-15T08:22:01;9.00;99.90
54082;DHT22;39986;50.770;0.266;2023-02-15T08:24:29;9.00;99.90
54082;DHT22;39986;50.770;0.266;2023-02-15T08:26:55;9.00;99.90
54082;DHT22;39986;50.770;0.266;2023-02-15T08:29:24;9.10;99.90
54082;DHT22;39986;50.770;0.266;2023-02-15T08:31:54;9.10;99.90
54082;DHT22;39986;50.770;0.266;2023-02-15T08:34:20;9.10;99.90
54082;DHT22;39986;50.770;0.266;2023-02-15T08:36:46;9.10;99.90
54082;DHT22;39986;50.770;0.266;2023-02-15T08:39:13;9.10;99.90
54082;DHT22;39986;50.770;0.266;2023-02-15T08:41:42;9.20;99.90
54082;DHT22;39986;50.770;0.266;2023-02-15T08:44:08;9.20;99.90
54082;DHT22;39986;50.770;0.266;2023-02-15T08:46:37;9.30;99.90
54082;DHT22;39986;50.770;0.266;2023-02-15T08:49:12;9.20;99.90
54082;DHT22;39986;50.770;0.266;2023-02-15T08:51:39;9.30;99.90
54082;DHT22;39986;50.770;0.266;2023-02-15T08:54:07;9.40;99.90
54082;DHT22;39986;50.770;0.266;2023-02-15T08:56:36;9.50;99.90
54082;DHT22;39986;50.770;0.266;2023-02-15T08:59:03;9.50;99.90
54082;DHT22;39986;50.770;0.266;2023-02-15T09:01:31;9.60;99.90
54082;DHT22;39986;50.770;0.266;2023-02-15T09:04:00;9.60;99.90
54082;DHT22;39986;50.770;0.266;2023-02-15T09:06:27;9.60;99.90
54082;DHT22;39986;50.770;0.266;2023-02-15T09:08:54;9.60;99.90
54082;DHT22;39986;50.770;0.266;2023-02-15T09:11:25;9.60;99.90
54082;DHT22;39986;50.770;0.266;2023-02-15T09:13:56;9.60;99.90
54082;DHT22;39986;50.770;0.266;2023-02-15T09:16:23;9.80;99.90
54082;DHT22;39986;50.770;0.266;2023-02-15T09:18:50;9.70;99.90
54082;DHT22;39986;50.770;0.266;2023-02-15T09:21:21;9.70;99.90
54082;DHT22;39986;50.770;0.266;2023-02-15T09:23:49;9.70;99.90
54082;DHT22;39986;50.770;0.266;2023-02-15T09:26:22;9.70;99.90
54082;DHT22;39986;50.770;0.266;2023-02-15T09:28:51;9.70;99.90
54082;DHT22;39986;50.770;0.266;2023-02-15T09:31:20;9.70;99.90
54082;DHT22;39986;50.770;0.266;2023-02-15T09:33:48;9.80;99.90
54082;DHT22;39986;50.770;0.266;2023-02-15T09:36:29;9.90;99.90
54082;DHT22;39986;50.770;0.266;2023-02-15T09:59:00;10.10;99.90
54082;DHT22;39986;50.770;0.266;2023-02-15T10:01:51;10.30;99.90
54082;DHT22;39986;50.770;0.266;2023-02-15T10:04:45;10.40;99.90
54082;DHT22;39986;50.770;0.266;2023-02-15T10:07:35;10.40;99.90
54082;DHT22;39986;50.770;0.266;2023-02-15T10:10:27;10.50;99.90
54082;DHT22;39986;50.770;0.266;2023-02-15T10:20:58;11.00;99.90
54082;DHT22;39986;50.770;0.266;2023-02-15T10:26:15;11.10;99.90
54082;DHT22;39986;50.770;0.266;2023-02-15T10:31:28;11.30;99.90
54082;DHT22;39986;50.770;0.266;2023-02-15T10:39:43;12.20;99.90
54082;DHT22;39986;50.770;0.266;2023-02-15T10:42:48;12.60;99.90
54082;DHT22;39986;50.770;0.266;2023-02-15T10:48:22;13.10;99.90
54082;DHT22;39986;50.770;0.266;2023-02-15T10:50:55;13.70;99.90
54082;DHT22;39986;50.770;0.266;2023-02-15T10:56:43;14.50;99.90
54082;DHT22;39986;50.770;0.266;2023-02-15T10:59:31;15.20;99.90
54082;DHT22;39986;50.770;0.266;2023-02-15T11:02:02;15.70;99.90
54082;DHT22;39986;50.770;0.266;2023-02-15T11:07:24;15.80;99.90
54082;DHT22;39986;50.770;0.266;2023-02-15T11:12:46;16.00;99.90
54082;DHT22;39986;50.770;0.266;2023-02-15T11:15:33;16.70;99.90
54082;DHT22;39986;50.770;0.266;2023-02-15T11:18:13;17.20;99.90
54082;DHT22;39986;50.770;0.266;2023-02-15T11:23:35;18.80;99.90
54082;DHT22;39986;50.770;0.266;2023-02-15T11:26:03;18.80;99.90
54082;DHT22;39986;50.770;0.266;2023-02-15T11:28:45;19.00;99.90
54082;DHT22;39986;50.770;0.266;2023-02-15T11:31:18;19.20;99.90
54082;DHT22;39986;50.770;0.266;2023-02-15T11:33:50;19.80;99.90
54082;DHT22;39986;50.770;0.266;2023-02-15T11:36:31;19.70;99.90
54082;DHT22;39986;50.770;0.266;2023-02-15T11:39:03;19.20;99.90
54082;DHT22;39986;50.770;0.266;2023-02-15T11:41:37;19.20;99.90
54082;DHT22;39986;50.770;0.266;2023-02-15T11:44:17;19.50;99.90
54082;DHT22;39986;50.770;0.266;2023-02-15T11:46:49;19.30;99.90
54082;DHT22;39986;50.770;0.266;2023-02-15T11:49:35;19.30;99.90
54082;DHT22;39986;50.770;0.266;2023-02-15T11:52:03;19.70;99.90
54082;DHT22;39986;50.770;0.266;2023-02-15T11:54:36;20.30;99.90
54082;DHT22;39986;50.770;0.266;2023-02-15T12:00:01;20.60;99.90
54082;DHT22;39986;50.770;0.266;2023-02-15T12:02:30;19.40;99.90
54082;DHT22;39986;50.770;0.266;2023-02-15T12:05:00;19.10;99.90
54082;DHT22;39986;50.770;0.266;2023-02-15T12:07:29;19.10;99.90
54082;DHT22;39986;50.770;0.266;2023-02-15T12:10:28;18.60;99.90
54082;DHT22;39986;50.770;0.266;2023-02-15T12:13:17;17.10;99.90
54082;DHT22;39986;50.770;0.266;2023-02-15T12:15:51;16.20;99.90
54082;DHT22;39986;50.770;0.266;2023-02-15T12:20:51;16.30;99.90
54082;DHT22;39986;50.770;0.266;2023-02-15T12:23:17;16.50;99.90
54082;DHT22;39986;50.770;0.266;2023-02-15T12:25:54;16.50;99.90
54082;DHT22;39986;50.770;0.266;2023-02-15T12:28:34;17.00;99.90
54082;DHT22;39986;50.770;0.266;2023-02-15T12:31:03;18.40;99.90
54082;DHT22;39986;50.770;0.266;2023-02-15T12:33:34;19.80;99.90
54082;DHT22;39986;50.770;0.266;2023-02-15T12:36:09;20.20;99.90
54082;DHT22;39986;50.770;0.266;2023-02-15T12:38:36;19.50;99.90
54082;DHT22;39986;50.770;0.266;2023-02-15T12:41:38;19.80;99.90
54082;DHT22;39986;50.770;0.266;2023-02-15T12:44:04;20.10;99.90
54082;DHT22;39986;50.770;0.266;2023-02-15T12:46:31;21.20;99.90
54082;DHT22;39986;50.770;0.266;2023-02-15T12:51:49;22.80;99.90
54082;DHT22;39986;50.770;0.266;2023-02-15T12:54:36;23.80;99.90
54082;DHT22;39986;50.770;0.266;2023-02-15T12:57:35;24.30;98.60
54082;DHT22;39986;50.770;0.266;2023-02-15T13:00:26;24.00;98.00
54082;DHT22;39986;50.770;0.266;2023-02-15T13:02:55;23.90;99.00
54082;DHT22;39986;50.770;0.266;2023-02-15T13:05:31;23.90;99.00
54082;DHT22;39986;50.770;0.266;2023-02-15T13:08:03;23.90;97.80
54082;DHT22;39986;50.770;0.266;2023-02-15T13:10:36;23.90;97.90
54082;DHT22;39986;50.770;0.266;2023-02-15T13:13:10;24.00;97.50
54082;DHT22;39986;50.770;0.266;2023-02-15T13:15:36;24.30;97.60
54082;DHT22;39986;50.770;0.266;2023-02-15T13:18:04;24.50;97.10
54082;DHT22;39986;50.770;0.266;2023-02-15T13:20:32;24.10;96.90
54082;DHT22;39986;50.770;0.266;2023-02-15T13:23:08;23.90;98.20
54082;DHT22;39986;50.770;0.266;2023-02-15T13:25:44;24.40;96.80
54082;DHT22;39986;50.770;0.266;2023-02-15T13:28:17;24.60;96.30
54082;DHT22;39986;50.770;0.266;2023-02-15T13:30:46;24.60;96.30
54082;DHT22;39986;50.770;0.266;2023-02-15T13:33:30;25.00;94.60
54082;DHT22;39986;50.770;0.266;2023-02-15T13:36:08;25.20;94.90
54082;DHT22;39986;50.770;0.266;2023-02-15T13:41:32;26.50;92.20
54082;DHT22;39986;50.770;0.266;2023-02-15T13:47:17;28.10;88.40
54082;DHT22;39986;50.770;0.266;2023-02-15T13:49:57;27.10;89.00
54082;DHT22;39986;50.770;0.266;2023-02-15T13:52:26;26.70;89.20
54082;DHT22;39986;50.770;0.266;2023-02-15T14:11:55;27.60;86.40
54082;DHT22;39986;50.770;0.266;2023-02-15T14:14:39;27.40;85.50
54082;DHT22;39986;50.770;0.266;2023-02-15T14:17:22;26.60;86.10
54082;DHT22;39986;50.770;0.266;2023-02-15T14:19:52;26.20;87.70
54082;DHT22;39986;50.770;0.266;2023-02-15T14:22:29;26.00;87.80
54082;DHT22;39986;50.770;0.266;2023-02-15T14:25:25;26.20;87.40
54082;DHT22;39986;50.770;0.266;2023-02-15T14:30:37;28.60;82.30
54082;DHT22;39986;50.770;0.266;2023-02-15T14:35:32;29.30;78.20
54082;DHT22;39986;50.770;0.266;2023-02-15T14:38:20;29.10;77.20
54082;DHT22;39986;50.770;0.266;2023-02-15T14:48:49;29.40;74.20
54082;DHT22;39986;50.770;0.266;2023-02-15T14:57:32;27.90;76.30
54082;DHT22;39986;50.770;0.266;2023-02-15T14:59:46;27.60;76.10
54082;DHT22;39986;50.770;0.266;2023-02-15T15:02:21;27.50;77.70
54082;DHT22;39986;50.770;0.266;2023-02-15T15:05:24;27.70;77.50
54082;DHT22;39986;50.770;0.266;2023-02-15T15:07:58;27.80;77.20
54082;DHT22;39986;50.770;0.266;2023-02-15T15:10:43;27.80;77.10
54082;DHT22;39986;50.770;0.266;2023-02-15T15:16:24;27.10;77.70
54082;DHT22;39986;50.770;0.266;2023-02-15T15:18:49;26.90;79.40
54082;DHT22;39986;50.770;0.266;2023-02-15T15:27:40;27.40;78.40
54082;DHT22;39986;50.770;0.266;2023-02-15T15:36:21;26.80;78.20
54082;DHT22;39986;50.770;0.266;2023-02-15T15:41:43;26.50;80.30
54082;DHT22;39986;50.770;0.266;2023-02-15T15:47:08;24.20;84.80
54082;DHT22;39986;50.770;0.266;2023-02-15T15:49:40;21.70;92.60
54082;DHT22;39986;50.770;0.266;2023-02-15T15:52:25;19.70;99.50
54082;DHT22;39986;50.770;0.266;2023-02-15T15:55:04;17.90;99.90
54082;DHT22;39986;50.770;0.266;2023-02-15T15:57:41;16.80;99.90
54082;DHT22;39986;50.770;0.266;2023-02-15T16:02:57;15.60;99.90
54082;DHT22;39986;50.770;0.266;2023-02-15T16:05:26;15.20;99.90
54082;DHT22;39986;50.770;0.266;2023-02-15T16:07:51;14.90;99.90
54082;DHT22;39986;50.770;0.266;2023-02-15T16:10:28;14.50;99.90
54082;DHT22;39986;50.770;0.266;2023-02-15T16:12:54;14.40;99.90
54082;DHT22;39986;50.770;0.266;2023-02-15T16:15:47;14.20;99.90
54082;DHT22;39986;50.770;0.266;2023-02-15T16:18:21;13.90;99.90
54082;DHT22;39986;50.770;0.266;2023-02-15T16:20:53;13.80;99.90
54082;DHT22;39986;50.770;0.266;2023-02-15T16:26:09;13.50;99.90
54082;DHT22;39986;50.770;0.266;2023-02-15T16:28:38;13.40;99.90
54082;DHT22;39986;50.770;0.266;2023-02-15T16:31:13;13.30;99.90
54082;DHT22;39986;50.770;0.266;2023-02-15T16:33:40;13.20;99.90
54082;DHT22;39986;50.770;0.266;2023-02-15T16:36:11;13.20;99.90
54082;DHT22;39986;50.770;0.266;2023-02-15T16:41:29;13.00;99.90
54082;DHT22;39986;50.770;0.266;2023-02-15T16:43:57;12.80;99.90
54082;DHT22;39986;50.770;0.266;2023-02-15T16:46:31;12.60;99.90
54082;DHT22;39986;50.770;0.266;2023-02-15T16:49:00;12.50;99.90
54082;DHT22;39986;50.770;0.266;2023-02-15T16:51:29;12.40;99.90
54082;DHT22;39986;50.770;0.266;2023-02-15T16:54:04;12.30;99.90
54082;DHT22;39986;50.770;0.266;2023-02-15T16:56:31;12.30;99.90
54082;DHT22;39986;50.770;0.266;2023-02-15T16:58:58;12.20;99.90
54082;DHT22;39986;50.770;0.266;2023-02-15T17:01:27;12.20;99.90
54082;DHT22;39986;50.770;0.266;2023-02-15T17:07:16;12.00;99.90
54082;DHT22;39986;50.770;0.266;2023-02-15T17:09:56;11.90;99.90
54082;DHT22;39986;50.770;0.266;2023-02-15T17:12:44;11.80;99.90
54082;DHT22;39986;50.770;0.266;2023-02-15T17:18:43;11.70;99.90
54082;DHT22;39986;50.770;0.266;2023-02-15T17:21:13;11.70;99.90
54082;DHT22;39986;50.770;0.266;2023-02-15T17:23:44;11.60;99.90
54082;DHT22;39986;50.770;0.266;2023-02-15T17:26:24;11.60;99.90
54082;DHT22;39986;50.770;0.266;2023-02-15T17:28:54;11.50;99.90
54082;DHT22;39986;50.770;0.266;2023-02-15T17:31:24;11.50;99.90
54082;DHT22;39986;50.770;0.266;2023-02-15T17:33:51;11.50;99.90
54082;DHT22;39986;50.770;0.266;2023-02-15T17:36:21;11.40;99.90
54082;DHT22;39986;50.770;0.266;2023-02-15T17:41:30;11.30;99.90
54082;DHT22;39986;50.770;0.266;2023-02-15T17:43:56;11.30;99.90
54082;DHT22;39986;50.770;0.266;2023-02-15T17:46:24;11.30;99.90
54082;DHT22;39986;50.770;0.266;2023-02-15T17:48:53;11.30;99.90
54082;DHT22;39986;50.770;0.266;2023-02-15T17:51:20;11.30;99.90
54082;DHT22;39986;50.770;0.266;2023-02-15T17:53:47;11.20;99.90
54082;DHT22;39986;50.770;0.266;2023-02-15T17:56:36;11.20;99.90
54082;DHT22;39986;50.770;0.266;2023-02-15T17:59:02;11.20;99.90
54082;DHT22;39986;50.770;0.266;2023-02-15T18:01:33;11.20;99.90
54082;DHT22;39986;50.770;0.266;2023-02-15T18:04:17;11.20;99.90
54082;DHT22;39986;50.770;0.266;2023-02-15T18:07:02;11.20;99.90
54082;DHT22;39986;50.770;0.266;2023-02-15T18:09:46;11.20;99.90
54082;DHT22;39986;50.770;0.266;2023-02-15T18:12:34;11.20;99.90
54082;DHT22;39986;50.770;0.266;2023-02-15T18:15:02;11.20;99.90
54082;DHT22;39986;50.770;0.266;2023-02-15T18:17:37;11.20;99.90
54082;DHT22;39986;50.770;0.266;2023-02-15T18:20:20;11.10;99.90
54082;DHT22;39986;50.770;0.266;2023-02-15T18:22:50;11.10;99.90
54082;DHT22;39986;50.770;0.266;2023-02-15T18:25:18;11.10;99.90
54082;DHT22;39986;50.770;0.266;2023-02-15T18:27:45;11.20;99.90
54082;DHT22;39986;50.770;0.266;2023-02-15T18:30:17;11.10;99.90
54082;DHT22;39986;50.770;0.266;2023-02-15T18:32:44;11.10;99.90
54082;DHT22;39986;50.770;0.266;2023-02-15T18:35:18;11.20;99.90
54082;DHT22;39986;50.770;0.266;2023-02-15T18:37:44;11.00;99.90
54082;DHT22;39986;50.770;0.266;2023-02-15T18:40:19;11.00;99.90
54082;DHT22;39986;50.770;0.266;2023-02-15T18:42:45;11.00;99.90
54082;DHT22;39986;50.770;0.266;2023-02-15T18:45:39;10.90;99.90
54082;DHT22;39986;50.770;0.266;2023-02-15T18:48:08;10.90;99.90
54082;DHT22;39986;50.770;0.266;2023-02-15T18:50:37;10.90;99.90
54082;DHT22;39986;50.770;0.266;2023-02-15T18:53:05;10.90;99.90
54082;DHT22;39986;50.770;0.266;2023-02-15T18:55:32;10.90;99.90
54082;DHT22;39986;50.770;0.266;2023-02-15T18:58:00;10.90;99.90